createdAt,value
2023-05-06T00:00:10.142Z,17.35
2023-05-06T00:02:37.533Z,17.13
2023-05-06T00:05:05.168Z,16.77
2023-05-06T00:07:32.693Z,17.00
2023-05-06T00:10:00.156Z,16.98
2023-05-06T00:12:27.564Z,17.95
2023-05-06T00:14:55.051Z,17.02
2023-05-06T00:17:22.558Z,18.42
2023-05-06T00:19:52.364Z,18.65
2023-05-06T00:22:19.786Z,20.98
2023-05-06T00:24:47.356Z,19.08
2023-05-06T00:27:14.775Z,19.38
2023-05-06T00:29:42.238Z,20.02
2023-05-06T00:32:09.666Z,18.92
2023-05-06T00:34:37.285Z,19.05
2023-05-06T00:37:04.720Z,18.10
2023-05-06T00:39:32.139Z,19.55
2023-05-06T00:42:03.457Z,19.55
2023-05-06T00:44:31.924Z,20.10
2023-05-06T00:47:00.784Z,19.83
2023-05-06T00:49:29.413Z,19.70
2023-05-06T00:51:57.321Z,20.00
2023-05-06T00:54:26.828Z,19.60
2023-05-06T00:56:54.530Z,20.90
2023-05-06T00:59:23.254Z,20.17
2023-05-06T01:01:52.228Z,23.08
2023-05-06T01:04:20.222Z,23.02
2023-05-06T01:06:53.523Z,22.63
2023-05-06T01:09:43.160Z,23.80
2023-05-06T01:12:21.914Z,23.20
2023-05-06T01:15:36.480Z,21.83
2023-05-06T01:18:10.872Z,23.42
2023-05-06T01:20:40.124Z,25.20
2023-05-06T01:23:12.037Z,25.52
2023-05-06T01:25:41.052Z,25.27
2023-05-06T01:28:11.473Z,26.55
2023-05-06T01:31:01.483Z,27.83
2023-05-06T01:33:47.647Z,28.33
2023-05-06T01:36:47.580Z,27.88
2023-05-06T01:39:25.969Z,28.50
2023-05-06T01:41:56.016Z,27.17
2023-05-06T01:44:23.619Z,28.95
2023-05-06T01:46:52.545Z,28.42
2023-05-06T01:49:20.935Z,28.42
2023-05-06T01:51:49.549Z,27.65
2023-05-06T01:54:17.179Z,28.83
2023-05-06T01:56:44.565Z,29.15
2023-05-06T01:59:12.231Z,29.75
2023-05-06T02:01:39.824Z,28.45
2023-05-06T02:04:07.508Z,29.25
2023-05-06T02:06:34.862Z,29.73
2023-05-06T02:09:02.287Z,27.70
2023-05-06T02:11:29.735Z,28.98
2023-05-06T02:13:58.277Z,28.95
2023-05-06T02:16:28.963Z,30.02
2023-05-06T02:18:56.737Z,29.52
2023-05-06T02:21:24.619Z,27.35
2023-05-06T02:23:52.284Z,30.80
2023-05-06T02:26:19.705Z,27.80
2023-05-06T02:28:47.127Z,29.77
2023-05-06T02:31:16.223Z,27.67
2023-05-06T02:33:45.215Z,29.30
2023-05-06T02:36:12.743Z,28.98
2023-05-06T02:38:40.160Z,29.20
2023-05-06T02:41:07.870Z,29.85
2023-05-06T02:43:35.360Z,29.60
2023-05-06T02:46:02.855Z,29.63
2023-05-06T02:48:30.331Z,30.02
2023-05-06T02:50:57.778Z,29.00
2023-05-06T02:53:25.129Z,29.33
2023-05-06T02:55:52.700Z,30.38
2023-05-06T02:58:20.392Z,29.52
2023-05-06T03:00:48.000Z,30.63
2023-05-06T03:03:15.787Z,31.38
2023-05-06T03:05:43.763Z,30.95
2023-05-06T03:08:11.252Z,31.52
2023-05-06T03:10:38.761Z,31.13
2023-05-06T03:13:06.355Z,31.20
2023-05-06T03:15:33.823Z,31.92
2023-05-06T03:18:01.298Z,30.13
2023-05-06T03:20:29.321Z,29.52
2023-05-06T03:22:56.833Z,32.58
2023-05-06T03:25:24.393Z,30.48
2023-05-06T03:27:51.803Z,30.73
2023-05-06T03:30:19.506Z,30.55
2023-05-06T03:32:49.354Z,31.38
2023-05-06T03:35:17.533Z,29.45
2023-05-06T03:37:44.892Z,32.05
2023-05-06T03:40:12.610Z,31.33
2023-05-06T03:42:40.280Z,32.22
2023-05-06T03:45:08.644Z,31.48
2023-05-06T03:47:36.561Z,29.38
2023-05-06T03:50:05.947Z,28.73
2023-05-06T03:52:33.311Z,29.25
2023-05-06T03:55:00.875Z,27.70
2023-05-06T03:57:28.270Z,29.58
2023-05-06T03:59:55.989Z,28.48
2023-05-06T04:02:23.672Z,30.02
2023-05-06T04:04:51.372Z,29.50
2023-05-06T04:07:18.905Z,28.05
2023-05-06T04:09:46.289Z,29.48
2023-05-06T04:12:16.813Z,29.70
2023-05-06T04:14:44.163Z,28.15
2023-05-06T04:17:11.588Z,27.63
2023-05-06T04:19:38.975Z,27.25
2023-05-06T04:22:06.432Z,27.67
2023-05-06T04:24:33.895Z,26.15
2023-05-06T04:27:02.842Z,28.25
2023-05-06T04:29:30.488Z,27.75
2023-05-06T04:31:58.418Z,27.75
2023-05-06T04:34:27.693Z,26.65
2023-05-06T04:36:55.394Z,26.13
2023-05-06T04:39:22.926Z,26.35
2023-05-06T04:41:50.714Z,25.88
2023-05-06T04:44:19.529Z,25.73
2023-05-06T04:46:47.237Z,26.23
2023-05-06T04:49:14.758Z,25.20
2023-05-06T04:51:42.132Z,24.90
2023-05-06T04:54:09.544Z,25.15
2023-05-06T04:56:36.937Z,24.38
2023-05-06T04:59:04.516Z,25.00
2023-05-06T05:01:31.899Z,23.60
2023-05-06T05:03:59.367Z,24.00
2023-05-06T05:06:26.758Z,24.20
2023-05-06T05:08:55.442Z,23.90
2023-05-06T05:11:23.033Z,23.67
2023-05-06T05:13:50.798Z,23.25
2023-05-06T05:16:18.388Z,23.05
2023-05-06T05:18:45.808Z,23.73
2023-05-06T05:21:13.304Z,22.92
2023-05-06T05:23:40.834Z,21.80
2023-05-06T05:26:08.283Z,23.77
2023-05-06T05:28:35.852Z,22.98
2023-05-06T05:31:05.067Z,23.50
2023-05-06T05:33:32.730Z,23.58
2023-05-06T05:36:00.336Z,22.58
2023-05-06T05:38:27.822Z,22.55
2023-05-06T05:40:56.676Z,22.73
2023-05-06T05:43:26.081Z,23.02
2023-05-06T05:45:53.598Z,23.95
2023-05-06T05:48:21.029Z,22.83
2023-05-06T05:50:48.437Z,23.15
2023-05-06T05:53:18.746Z,22.13
2023-05-06T05:55:46.116Z,21.63
2023-05-06T05:58:13.634Z,22.48
2023-05-06T06:00:41.013Z,21.75
2023-05-06T06:03:08.626Z,22.38
2023-05-06T06:05:39.178Z,22.70
2023-05-06T06:08:06.665Z,22.42
2023-05-06T06:10:34.150Z,21.95
2023-05-06T06:13:01.861Z,23.17
2023-05-06T06:15:29.478Z,20.85
2023-05-06T06:17:57.090Z,21.55
2023-05-06T06:20:24.652Z,20.70
2023-05-06T06:22:52.023Z,20.73
2023-05-06T06:25:20.088Z,21.17
2023-05-06T06:27:47.480Z,20.80
2023-05-06T06:30:14.928Z,20.17
2023-05-06T06:32:50.392Z,21.48
2023-05-06T06:35:19.437Z,21.75
2023-05-06T06:37:47.500Z,21.83
2023-05-06T06:40:15.196Z,20.55
2023-05-06T06:42:43.836Z,21.42
2023-05-06T06:45:12.257Z,20.95
2023-05-06T06:47:39.946Z,21.55
2023-05-06T06:50:08.557Z,20.10
2023-05-06T06:52:36.333Z,19.40
2023-05-06T06:55:04.148Z,18.38
2023-05-06T06:57:31.593Z,18.05
2023-05-06T06:59:58.941Z,17.08
2023-05-06T07:02:26.408Z,16.15
2023-05-06T07:04:54.481Z,16.33
2023-05-06T07:07:21.907Z,16.55
2023-05-06T07:13:05.433Z,16.77
2023-05-06T07:15:33.028Z,17.63
2023-05-06T07:18:00.536Z,17.02
2023-05-06T07:20:28.024Z,17.77
2023-05-06T07:22:55.419Z,16.98
2023-05-06T07:25:22.814Z,16.73
2023-05-06T07:27:50.544Z,16.60
2023-05-06T07:30:21.008Z,17.58
2023-05-06T07:32:50.652Z,17.17
2023-05-06T07:35:20.725Z,18.70
2023-05-06T07:37:48.214Z,17.90
2023-05-06T07:40:15.596Z,19.77
2023-05-06T07:42:43.372Z,18.02
2023-05-06T07:45:11.429Z,19.85
2023-05-06T07:47:39.232Z,20.23
2023-05-06T07:50:07.598Z,20.02
2023-05-06T07:52:35.150Z,20.13
2023-05-06T07:55:02.708Z,19.30
2023-05-06T07:57:30.048Z,20.50
2023-05-06T07:59:58.706Z,18.88
2023-05-06T08:02:27.229Z,19.30
2023-05-06T08:04:54.861Z,18.83
2023-05-06T08:07:22.307Z,19.63
2023-05-06T08:09:49.723Z,18.38
2023-05-06T08:12:17.623Z,19.25
2023-05-06T08:14:45.530Z,18.52
2023-05-06T08:17:14.050Z,20.08
2023-05-06T08:19:43.477Z,19.42
2023-05-06T08:22:11.006Z,20.15
2023-05-06T08:24:41.407Z,18.35
2023-05-06T08:27:08.878Z,18.67
2023-05-06T08:29:36.492Z,18.15
2023-05-06T08:32:04.931Z,18.13
2023-05-06T08:34:32.587Z,17.38
2023-05-06T08:37:00.261Z,17.40
2023-05-06T08:39:33.962Z,17.45
2023-05-06T08:42:02.970Z,17.60
2023-05-06T08:44:30.605Z,18.67
2023-05-06T08:46:58.509Z,18.60
2023-05-06T08:49:26.277Z,16.55
2023-05-06T08:51:57.957Z,17.42
2023-05-06T08:54:28.744Z,16.40
2023-05-06T08:56:57.906Z,16.42
2023-05-06T08:59:26.860Z,14.35
2023-05-06T09:01:54.319Z,14.15
2023-05-06T09:04:21.878Z,14.38
2023-05-06T09:06:49.401Z,13.20
2023-05-06T09:09:16.873Z,14.93
2023-05-06T09:11:44.485Z,13.70
2023-05-06T09:14:12.620Z,15.10
2023-05-06T09:16:48.189Z,13.80
2023-05-06T09:19:16.723Z,13.98
2023-05-06T09:21:46.062Z,16.08
2023-05-06T09:24:15.384Z,20.45
2023-05-06T09:26:44.772Z,16.30
2023-05-06T09:29:12.347Z,16.20
2023-05-06T09:31:44.727Z,15.77
2023-05-06T09:34:12.964Z,15.00
2023-05-06T09:36:40.524Z,15.20
2023-05-06T09:39:09.957Z,15.43
2023-05-06T09:41:37.586Z,14.20
2023-05-06T09:44:05.737Z,12.48
2023-05-06T09:46:33.450Z,13.30
2023-05-06T09:49:01.737Z,13.60
2023-05-06T09:51:29.766Z,11.68
2023-05-06T09:53:57.934Z,13.25
2023-05-06T09:56:31.213Z,12.85
2023-05-06T09:59:01.417Z,12.45
2023-05-06T10:01:36.774Z,12.32
2023-05-06T10:04:08.854Z,13.10
2023-05-06T10:06:39.457Z,12.90
2023-05-06T10:09:08.309Z,13.02
2023-05-06T10:11:36.402Z,9.07
2023-05-06T10:14:04.249Z,9.13
2023-05-06T10:16:32.036Z,8.00
2023-05-06T10:19:00.062Z,8.45
2023-05-06T10:21:29.455Z,9.07
2023-05-06T10:24:07.795Z,10.95
2023-05-06T10:26:38.242Z,9.48
2023-05-06T10:29:10.882Z,8.95
2023-05-06T10:34:26.391Z,10.23
2023-05-06T10:36:57.620Z,10.50
2023-05-06T10:39:25.980Z,11.10
2023-05-06T10:41:53.429Z,10.73
2023-05-06T10:44:59.507Z,9.85
2023-05-06T10:47:27.359Z,9.48
2023-05-06T10:50:23.357Z,8.25
2023-05-06T10:52:59.055Z,7.15
2023-05-06T10:55:29.481Z,8.07
2023-05-06T10:58:12.259Z,7.60
2023-05-06T11:03:13.221Z,7.07
2023-05-06T11:05:51.713Z,6.65
2023-05-06T11:08:26.664Z,6.70
2023-05-06T11:10:54.818Z,7.05
2023-05-06T11:13:27.828Z,7.00
2023-05-06T11:16:00.255Z,7.40
2023-05-06T11:18:31.911Z,6.75
2023-05-06T11:21:05.183Z,6.33
2023-05-06T11:23:52.114Z,7.45
2023-05-06T11:26:19.584Z,7.03
2023-05-06T11:28:50.202Z,7.28
2023-05-06T11:31:18.000Z,7.15
2023-05-06T11:33:48.707Z,6.93
2023-05-06T11:36:17.847Z,7.35
2023-05-06T11:38:50.040Z,7.47
2023-05-06T11:41:18.327Z,6.40
2023-05-06T11:43:50.234Z,7.07
2023-05-06T11:46:19.413Z,7.80
2023-05-06T11:48:47.288Z,8.15
2023-05-06T11:51:14.779Z,7.10
2023-05-06T11:53:42.279Z,7.90
2023-05-06T11:56:09.815Z,7.28
2023-05-06T11:58:37.312Z,7.88
2023-05-06T12:01:05.356Z,7.30
2023-05-06T12:03:33.743Z,6.75
2023-05-06T12:06:01.465Z,6.18
2023-05-06T12:08:33.863Z,6.72
2023-05-06T12:11:06.857Z,6.03
2023-05-06T12:13:36.869Z,6.57
2023-05-06T12:16:05.435Z,6.45
2023-05-06T12:18:33.253Z,6.22
2023-05-06T12:21:03.685Z,6.60
2023-05-06T12:23:31.395Z,6.20
2023-05-06T12:26:06.753Z,6.40
2023-05-06T12:28:35.984Z,6.05
2023-05-06T12:31:23.370Z,6.93
2023-05-06T12:33:51.176Z,6.63
2023-05-06T12:36:19.377Z,6.63
2023-05-06T12:38:57.653Z,4.95
2023-05-06T12:41:36.640Z,6.30
2023-05-06T12:44:04.808Z,5.43
2023-05-06T12:46:33.515Z,5.30
2023-05-06T12:49:02.244Z,4.85
2023-05-06T12:51:33.629Z,4.93
2023-05-06T12:54:01.007Z,5.72
2023-05-06T12:56:28.375Z,4.95
2023-05-06T12:58:59.490Z,4.93
2023-05-06T13:01:30.355Z,5.20
2023-05-06T13:04:02.731Z,5.10
2023-05-06T13:06:30.180Z,5.70
2023-05-06T13:08:57.625Z,4.88
2023-05-06T13:11:28.314Z,5.40
2023-05-06T13:13:55.856Z,4.55
2023-05-06T13:16:23.803Z,4.78
2023-05-06T13:18:51.289Z,4.50
2023-05-06T13:21:21.837Z,4.80
2023-05-06T13:23:49.414Z,4.60
2023-05-06T13:26:17.785Z,4.78
2023-05-06T13:28:45.478Z,4.70
2023-05-06T13:31:12.948Z,4.55
2023-05-06T13:33:40.577Z,4.35
2023-05-06T13:36:08.222Z,3.88
2023-05-06T13:38:36.048Z,3.70
2023-05-06T13:41:03.483Z,3.60
2023-05-06T13:43:31.952Z,3.72
2023-05-06T13:45:59.350Z,3.28
2023-05-06T13:48:29.998Z,3.03
2023-05-06T13:50:57.462Z,3.20
2023-05-06T13:53:27.547Z,3.47
2023-05-06T13:55:55.325Z,3.53
2023-05-06T13:58:22.764Z,3.03
2023-05-06T14:00:50.108Z,3.63
2023-05-06T14:03:18.565Z,3.47
2023-05-06T14:05:46.213Z,2.78
2023-05-06T14:08:13.939Z,2.00
2023-05-06T14:10:41.369Z,2.00
2023-05-06T14:13:09.039Z,2.85
2023-05-06T14:15:36.527Z,3.75
2023-05-06T14:18:04.695Z,2.45
2023-05-06T14:20:32.272Z,2.60
2023-05-06T14:22:59.663Z,2.92
2023-05-06T14:25:28.142Z,2.00
2023-05-06T14:27:55.967Z,2.70
2023-05-06T14:30:24.510Z,3.03
2023-05-06T14:32:51.989Z,2.55
2023-05-06T14:35:19.617Z,2.45
2023-05-06T14:37:47.094Z,2.72
2023-05-06T14:40:16.388Z,2.85
2023-05-06T14:42:44.289Z,3.10
2023-05-06T14:45:12.927Z,4.05
2023-05-06T14:47:41.598Z,2.92
2023-05-06T14:50:13.151Z,2.78
2023-05-06T14:52:41.794Z,3.42
2023-05-06T14:55:10.707Z,2.83
2023-05-06T14:57:38.964Z,2.95
2023-05-06T15:00:12.574Z,3.60
2023-05-06T15:02:41.225Z,3.13
2023-05-06T15:05:12.487Z,2.95
2023-05-06T15:07:40.164Z,3.22
2023-05-06T15:10:08.088Z,3.47
2023-05-06T15:12:37.307Z,3.00
2023-05-06T15:15:08.019Z,2.80
2023-05-06T15:17:35.711Z,2.78
2023-05-06T15:20:04.697Z,3.20
2023-05-06T15:22:32.133Z,3.70
2023-05-06T15:24:59.530Z,2.97
2023-05-06T15:27:27.108Z,3.50
2023-05-06T15:29:54.914Z,3.10
2023-05-06T15:32:22.485Z,3.30
2023-05-06T15:34:50.895Z,3.42
2023-05-06T15:37:19.425Z,3.42
2023-05-06T15:39:48.250Z,4.28
2023-05-06T15:42:16.930Z,4.10
2023-05-06T15:44:45.261Z,3.70
2023-05-06T15:47:13.099Z,3.83
2023-05-06T15:52:11.684Z,3.10
2023-05-06T15:54:40.907Z,3.42
2023-05-06T15:57:08.755Z,2.95
2023-05-06T15:59:38.696Z,2.83
2023-05-06T16:04:36.661Z,2.90
2023-05-06T16:07:04.832Z,3.25
2023-05-06T16:09:32.738Z,3.28
2023-05-06T16:12:00.229Z,3.15
2023-05-06T16:14:27.585Z,3.20
2023-05-06T16:16:55.161Z,6.80
2023-05-06T16:19:22.616Z,6.00
2023-05-06T16:21:50.026Z,6.10
2023-05-06T16:24:17.413Z,6.88
2023-05-06T16:26:44.837Z,7.40
2023-05-06T16:29:12.267Z,10.02
2023-05-06T16:31:39.915Z,11.35
2023-05-06T16:34:07.469Z,10.50
2023-05-06T16:36:35.236Z,9.95
2023-05-06T16:39:02.678Z,10.20
2023-05-06T16:41:30.060Z,9.93
2023-05-06T16:43:58.080Z,12.27
2023-05-06T16:49:07.577Z,10.13
2023-05-06T16:51:34.960Z,11.25
2023-05-06T16:58:53.146Z,7.70
2023-05-06T17:01:20.576Z,7.85
2023-05-06T17:03:51.093Z,7.18
2023-05-06T17:06:31.637Z,8.00
2023-05-06T17:15:42.448Z,7.70
2023-05-06T17:18:10.258Z,7.38
2023-05-06T17:20:47.924Z,7.18
2023-05-06T17:23:22.181Z,6.82
2023-05-06T17:27:35.138Z,7.63
2023-05-06T17:29:06.010Z,7.30
2023-05-06T17:31:36.168Z,8.23
2023-05-06T17:34:07.908Z,7.07
2023-05-06T17:37:44.386Z,7.25
2023-05-06T17:41:06.635Z,7.47
2023-05-06T17:43:41.355Z,8.15
2023-05-06T17:46:12.331Z,7.60
2023-05-06T17:48:39.784Z,7.00
2023-05-06T17:51:10.275Z,7.45
2023-05-06T17:53:38.673Z,7.47
2023-05-06T17:56:06.457Z,8.25
2023-05-06T17:58:33.870Z,8.40
2023-05-06T18:01:01.270Z,8.98
2023-05-06T18:03:28.717Z,9.60
2023-05-06T18:05:56.154Z,10.00
2023-05-06T18:08:23.543Z,8.75
2023-05-06T18:10:50.914Z,9.70
2023-05-06T18:13:18.406Z,10.50
2023-05-06T18:15:45.966Z,10.40
2023-05-06T18:18:13.448Z,10.35
2023-05-06T18:20:42.012Z,11.05
2023-05-06T18:23:09.573Z,10.23
2023-05-06T18:25:37.043Z,11.10
2023-05-06T18:28:05.457Z,12.13
2023-05-06T18:30:32.973Z,13.90
2023-05-06T18:33:00.422Z,12.98
2023-05-06T18:35:28.010Z,13.18
2023-05-06T18:37:55.423Z,12.80
2023-05-06T18:40:23.389Z,11.15
2023-05-06T18:42:50.877Z,13.75
2023-05-06T18:45:18.395Z,13.05
2023-05-06T18:47:45.929Z,12.48
2023-05-06T18:50:13.379Z,11.98
2023-05-06T18:52:40.748Z,11.27
2023-05-06T18:55:09.011Z,13.48
2023-05-06T18:57:37.184Z,14.93
2023-05-06T19:00:07.211Z,14.80
2023-05-06T19:02:34.779Z,16.83
2023-05-06T19:05:02.123Z,15.73
2023-05-06T19:07:29.498Z,15.15
2023-05-06T19:09:59.633Z,14.50
2023-05-06T19:12:27.037Z,13.55
2023-05-06T19:14:54.402Z,12.90
2023-05-06T19:17:21.988Z,12.30
2023-05-06T19:19:49.377Z,12.77
2023-05-06T19:22:17.360Z,12.13
2023-05-06T19:24:44.806Z,10.65
2023-05-06T19:27:12.272Z,10.73
2023-05-06T19:29:39.879Z,11.35
2023-05-06T19:32:07.372Z,11.25
2023-05-06T19:34:38.165Z,11.15
2023-05-06T19:37:05.768Z,12.43
2023-05-06T19:39:36.078Z,12.93
2023-05-06T19:42:03.440Z,12.50
2023-05-06T19:44:30.823Z,11.98
2023-05-06T19:46:58.157Z,13.00
2023-05-06T19:49:26.347Z,12.93
2023-05-06T19:51:53.714Z,12.38
2023-05-06T19:54:22.400Z,12.77
2023-05-06T19:56:49.896Z,11.43
2023-05-06T19:59:17.656Z,12.90
2023-05-06T20:01:44.974Z,12.80
2023-05-06T20:04:12.378Z,11.80
2023-05-06T20:06:39.715Z,10.32
2023-05-06T20:09:12.124Z,12.15
2023-05-06T20:11:40.045Z,12.32
2023-05-06T20:14:07.517Z,13.18
2023-05-06T20:19:02.427Z,13.25
2023-05-06T20:21:29.339Z,13.25
2023-05-06T20:23:56.434Z,14.18
2023-05-06T20:26:25.036Z,12.52
2023-05-06T20:28:53.212Z,11.60
2023-05-06T20:31:20.329Z,15.43
2023-05-06T20:33:50.949Z,15.07
2023-05-06T20:36:17.885Z,15.45
2023-05-06T20:38:53.341Z,14.75
2023-05-06T20:41:21.461Z,14.43
2023-05-06T20:43:48.464Z,14.32
2023-05-06T20:46:15.546Z,13.45
2023-05-06T20:48:42.612Z,15.40
2023-05-06T20:51:09.550Z,16.48
2023-05-06T20:53:37.197Z,17.90
2023-05-06T20:56:06.610Z,16.52
2023-05-06T20:59:03.568Z,17.40
2023-05-06T21:01:30.763Z,16.00
2023-05-06T21:03:59.172Z,16.55
2023-05-06T21:06:26.972Z,17.45
2023-05-06T21:08:53.918Z,19.67
2023-05-06T21:11:21.051Z,16.88
2023-05-06T21:13:50.061Z,16.98
2023-05-06T21:16:17.305Z,19.77
2023-05-06T21:18:44.388Z,19.08
2023-05-06T21:21:11.254Z,19.85
2023-05-06T21:23:38.223Z,20.08
2023-05-06T21:26:05.292Z,19.25
2023-05-06T21:28:32.263Z,19.80
2023-05-06T21:30:59.388Z,18.23
2023-05-06T21:33:26.278Z,18.63
2023-05-06T21:35:53.222Z,19.15
2023-05-06T21:38:20.348Z,20.05
2023-05-06T21:40:47.370Z,18.92
2023-05-06T21:43:17.745Z,19.35
2023-05-06T21:45:44.971Z,20.33
2023-05-06T21:48:12.093Z,16.17
2023-05-06T21:50:39.185Z,17.58
2023-05-06T21:53:06.582Z,17.08
2023-05-06T21:55:33.716Z,18.85
2023-05-06T21:58:00.766Z,18.17
2023-05-06T22:00:28.166Z,19.02
2023-05-06T22:02:55.505Z,21.00
2023-05-06T22:05:22.866Z,23.02
2023-05-06T22:07:50.356Z,21.83
2023-05-06T22:10:17.370Z,25.25
2023-05-06T22:12:44.395Z,25.35
2023-05-06T22:15:13.862Z,24.85
2023-05-06T22:17:41.020Z,29.20
2023-05-06T22:20:11.104Z,24.38
2023-05-06T22:22:38.533Z,24.35
2023-05-06T22:25:06.823Z,27.85
2023-05-06T22:27:33.909Z,27.20
2023-05-06T22:30:00.814Z,27.63
2023-05-06T22:32:27.993Z,29.63
2023-05-06T22:34:54.905Z,28.55
2023-05-06T22:37:21.860Z,32.58
2023-05-06T22:39:50.821Z,31.55
2023-05-06T22:42:17.805Z,31.27
2023-05-06T22:44:45.958Z,29.02
2023-05-06T22:47:12.959Z,30.27
2023-05-06T22:49:40.314Z,31.10
2023-05-06T22:52:07.283Z,31.05
2023-05-06T22:54:34.345Z,30.17
2023-05-06T22:57:01.287Z,27.90
2023-05-06T22:59:28.685Z,30.58
2023-05-06T23:01:56.066Z,31.55
2023-05-06T23:04:23.296Z,34.67
2023-05-06T23:06:50.237Z,30.98
2023-05-06T23:09:17.274Z,32.20
2023-05-06T23:11:45.346Z,32.42
2023-05-06T23:14:13.105Z,35.47
2023-05-06T23:16:40.152Z,38.67
2023-05-06T23:19:07.173Z,41.65
2023-05-06T23:21:34.133Z,39.78
2023-05-06T23:24:01.553Z,42.97
2023-05-06T23:26:28.705Z,45.03
2023-05-06T23:28:56.011Z,43.60
2023-05-06T23:31:23.319Z,41.83
2023-05-06T23:33:50.310Z,40.97
2023-05-06T23:36:17.824Z,44.97
2023-05-06T23:38:44.851Z,49.30
2023-05-06T23:41:12.598Z,42.38
2023-05-06T23:43:39.525Z,45.90
2023-05-06T23:46:06.482Z,40.97
2023-05-06T23:48:34.115Z,43.22
2023-05-06T23:51:01.128Z,43.47
2023-05-06T23:53:28.168Z,48.00
2023-05-06T23:55:55.903Z,45.45
2023-05-06T23:58:22.823Z,44.40
